Stations météo

réclame
Mon MeteoGroup
Monte S. Angelo, Italie (16258): Température de l'air & dewpoint: 14.10.2018 19:00:00 - 20.10.2018 19:00:00 (CEST)Monte S. Angelo, Italie (16258): Vitesse du vent: 14.10.2018 19:00:00 - 20.10.2018 19:00:00 (CEST)Monte S. Angelo, Italie (16258): Direction du vent: 14.10.2018 19:00:00 - 20.10.2018 19:00:00 (CEST)Monte S. Angelo, Italie (16258): visibility: 14.10.2018 19:00:00 - 20.10.2018 19:00:00 (CEST)
Date & Time tt [°C] td [°C] ff [km/h] ff [knt] dd vv [km]
20.10.2018 19:00:00 12,2 10,6 13 7 NNW 15
20.10.2018 18:00:00 12,6 9,6 13 7 NW 12
20.10.2018 17:00:00 14,0 9,2 21 11 NNW 15
20.10.2018 16:00:00 14,6 9,2 15 8 NNW 15
20.10.2018 15:00:00 15,0 9,6 13 7 NNW 15
20.10.2018 14:00:00 15,0 9,6 18 10 NW 15
20.10.2018 13:00:00 15,0 10,2 21 11 NW 15
20.10.2018 12:00:00 14,4 11,0 15 8 WNW 15
20.10.2018 11:00:00 14,4 11,0 22 12 NW 12
20.10.2018 10:00:00 14,0 10,0 18 10 WNW 12
20.10.2018 09:00:00 13,0 12,8 21 11 WNW 12
20.10.2018 08:00:00 12,2 12,2 22 12 NW 10
20.10.2018 07:00:00 13,6 10,6 21 11 NW 12
20.10.2018 06:00:00 12,6 10,5 18 10 NW 15
20.10.2018 05:00:00 12,2 12,2 15 8 NW 15
20.10.2018 04:00:00 13,2 10,7 16 9 WNW 15
20.10.2018 03:00:00 13,6 9,5 15 8 NW 15
20.10.2018 02:00:00 13,8 8,4 13 7 NW 15
20.10.2018 01:00:00 14,2 8,4 15 8 NW 15
20.10.2018 00:00:00 14,0 8,0 16 9 NW 15
19.10.2018 23:00:00 14,4 5,0 18 10 WNW 15
19.10.2018 22:00:00 15,0 4,7 9 5 NW 15
19.10.2018 21:00:00 15,4 6,7 9 5 NW 15
19.10.2018 20:00:00 15,0 13,0 9 5 NW 15
19.10.2018 19:00:00 15,0 12,5 8 4 NW 15
19.10.2018 18:00:00 17,0 12,7 9 5 WSW 15
19.10.2018 17:00:00 19,0 12,0 4 2 WNW 15
19.10.2018 16:00:00 18,0 11,5 11 6 S 15
19.10.2018 15:00:00 18,0 13,1 9 5 S 15
19.10.2018 14:00:00 19,0 13,4 8 4 SE 15
19.10.2018 13:00:00 20,0 10,1 4 2 N 15
19.10.2018 12:00:00 19,0 8,7 4 2 SSW 15
19.10.2018 11:00:00 17,0 8,4 4 2 ENE 15
19.10.2018 10:00:00 15,2 6,2 4 2 NNE 15
19.10.2018 09:00:00 14,6 7,2 5 3 N 15
19.10.2018 08:00:00 14,0 7,3 8 4 N 18
19.10.2018 07:00:00 13,6 8,2 8 4 NNW 15
19.10.2018 06:00:00 15,0 4,4 5 3 ESE 15
19.10.2018 05:00:00 15,0 4,4 5 3 ESE 15
19.10.2018 04:00:00 14,0 5,4 4 2 ENE 15
19.10.2018 03:00:00 13,6 9,8 4 2 NW 15
19.10.2018 02:00:00 15,2 4,3 8 4 ESE 15
19.10.2018 01:00:00 14,6 5,7 5 3 ENE 15
19.10.2018 00:00:00 14,4 5,0 5 3 N 15
18.10.2018 23:00:00 14,4 4,1 4 2 NE 15
18.10.2018 22:00:00 14,2 8,6 8 4 S 15
18.10.2018 21:00:00 14,2 9,8 5 3 SSE 15
18.10.2018 20:00:00 14,8 9,8 5 3 SE 15
18.10.2018 19:00:00 14,0 12,4 4 2 N 10
18.10.2018 18:00:00 14,8 14,0 8 4 NNW 10
18.10.2018 17:00:00 17,4 10,3 9 5 NE 12
18.10.2018 16:00:00 18,2 12,2 8 4 SSE 12
18.10.2018 15:00:00 18,6 7,4 5 3 NE 12
18.10.2018 14:00:00 17,8 12,3 9 5 SSE 10
18.10.2018 13:00:00 18,0 13,1 11 6 S 10
18.10.2018 12:00:00 18,2 10,8 5 3 N 10
18.10.2018 11:00:00 17,2 6,7 8 4 ENE 10
18.10.2018 10:00:00 15,8 7,0 8 4 ENE 10
18.10.2018 09:00:00 14,6 5,4 9 5 NE 10
18.10.2018 08:00:00 14,2 4,5 8 4 NE 10
18.10.2018 07:00:00 14,2 4,2 9 5 NE 10
18.10.2018 06:00:00 14,2 6,1 9 5 NE 15
18.10.2018 05:00:00 14,4 8,6 8 4 NE 10
18.10.2018 04:00:00 14,4 8,4 5 3 ENE 15
18.10.2018 03:00:00 14,4 10,0 5 3 NE 10
18.10.2018 02:00:00 14,6 10,6 5 3 NNE 10
18.10.2018 01:00:00 14,6 9,2 8 4 NNE 15
18.10.2018 00:00:00 15,0 9,8 2 1 ESE 15
17.10.2018 23:00:00 15,2 10,4 5 3 SSE 15
17.10.2018 22:00:00 15,2 9,1 4 2 SSE 15
17.10.2018 21:00:00 14,4 4,4 8 4 SE 15
17.10.2018 20:00:00 14,6 4,6 9 5 ESE 15
17.10.2018 19:00:00 15,0 6,5 4 2 ENE 15
17.10.2018 18:00:00 15,6 3,1 4 2 ENE 15
17.10.2018 17:00:00 17,4 7,7 5 3 SE 18
17.10.2018 16:00:00 17,4 11,2 13 7 S 18
17.10.2018 15:00:00 18,6 12,4 5 3 ENE 18
17.10.2018 14:00:00 17,6 13,5 8 4 SSW 10
17.10.2018 13:00:00 16,8 15,2 8 4 S -
17.10.2018 12:00:00 15,6 15,0 9 5 S -
17.10.2018 11:00:00 15,0 14,4 8 4 S -
17.10.2018 10:00:00 14,2 13,6 9 5 WNW -
17.10.2018 09:00:00 14,0 13,4 8 4 ESE -
17.10.2018 08:00:00 14,0 13,4 9 5 E -
17.10.2018 07:00:00 13,8 13,2 11 6 ESE -
17.10.2018 06:00:00 14,0 13,4 11 6 ESE 0,1
17.10.2018 05:00:00 14,0 13,4 11 6 ESE -
17.10.2018 04:00:00 14,0 13,4 16 9 SSE -
17.10.2018 03:00:00 14,0 13,4 15 8 SSE -
17.10.2018 02:00:00 14,0 13,4 15 8 SSE -
17.10.2018 01:00:00 14,0 13,4 16 9 SE -
17.10.2018 00:00:00 14,0 12,4 18 10 SE 15
16.10.2018 23:00:00 14,0 11,5 13 7 SE 15
16.10.2018 22:00:00 13,8 12,5 15 8 SE 12
16.10.2018 21:00:00 13,8 13,2 11 6 ESE -
16.10.2018 20:00:00 14,0 13,4 13 7 ESE -
16.10.2018 19:00:00 14,2 13,6 16 9 SE -
16.10.2018 18:00:00 14,2 13,4 15 8 ESE -
16.10.2018 17:00:00 14,4 13,6 16 9 SE -
16.10.2018 16:00:00 15,0 14,7 21 11 SSE -
16.10.2018 15:00:00 14,8 14,3 18 10 SE -
16.10.2018 14:00:00 14,6 14,0 21 11 SSE -
16.10.2018 13:00:00 14,4 13,6 18 10 SE -
16.10.2018 12:00:00 14,4 13,8 21 11 SSE -
16.10.2018 11:00:00 14,0 13,4 21 11 SSE -
16.10.2018 10:00:00 14,2 13,6 22 12 SSE -
16.10.2018 09:00:00 14,4 13,8 22 12 SE -
16.10.2018 08:00:00 14,2 12,6 21 11 SSE -
16.10.2018 07:00:00 14,2 12,6 21 11 SSE -
16.10.2018 06:00:00 14,6 13,0 18 10 SE -
16.10.2018 05:00:00 14,0 12,4 16 9 SE -
16.10.2018 04:00:00 14,0 12,4 11 6 SE -
16.10.2018 03:00:00 14,0 12,4 11 6 NNE -
16.10.2018 02:00:00 14,0 12,4 13 7 ESE -
16.10.2018 01:00:00 14,0 12,4 9 5 ESE -
16.10.2018 00:00:00 14,0 13,1 9 5 ESE -
15.10.2018 23:00:00 14,0 11,9 9 5 ESE 10
15.10.2018 22:00:00 14,0 12,0 9 5 ESE 15
15.10.2018 21:00:00 14,0 10,6 11 6 E 15
15.10.2018 20:00:00 14,0 12,1 11 6 E 15
15.10.2018 19:00:00 14,2 9,8 11 6 ENE 15
15.10.2018 18:00:00 14,2 8,2 13 7 ENE 15
15.10.2018 17:00:00 14,6 10,8 13 7 E 15
15.10.2018 16:00:00 14,4 12,8 13 7 E 15
15.10.2018 15:00:00 14,6 12,6 11 6 E 15
15.10.2018 14:00:00 14,6 12,1 11 6 ESE 13
15.10.2018 13:00:00 14,6 14,0 9 5 ESE -
15.10.2018 12:00:00 14,2 13,6 16 9 SE -
15.10.2018 11:00:00 14,2 13,6 22 12 SE -
15.10.2018 10:00:00 14,2 13,6 16 9 ESE -
15.10.2018 09:00:00 13,8 13,2 15 8 ESE -
15.10.2018 08:00:00 13,2 12,6 13 7 ESE -
15.10.2018 07:00:00 13,2 12,9 15 8 SE -
15.10.2018 06:00:00 13,2 12,9 11 6 ESE -
15.10.2018 05:00:00 13,4 12,9 9 5 E 0,1
15.10.2018 04:00:00 13,4 12,8 8 4 S 0,1
15.10.2018 03:00:00 13,6 13,3 8 4 E 0,1
15.10.2018 02:00:00 13,6 13,1 5 3 ESE 0,1
15.10.2018 01:00:00 14,0 13,7 8 4 ESE 0,1
15.10.2018 00:00:00 14,0 13,0 8 4 SSE 0,1
14.10.2018 23:00:00 13,4 13,4 11 6 SE 0,1
14.10.2018 22:00:00 14,0 9,8 9 5 SE 10
14.10.2018 21:00:00 14,0 10,2 8 4 SSE 10
14.10.2018 20:00:00 15,0 4,1 5 3 SE 15
14.10.2018 19:00:00 15,2 5,7 5 3 E 15

tt = Température de l'air
td = dewpoint
ff = Vitesse du vent
dd = Direction du vent
vv = visibility

stations d'obs. à proximité